sensor_id;sensor_type;location;lat;lon;timestamp;pressure;altitude;pressure_sealevel;temperature;humidity
10652;BME280;5374;42.742;23.266;2023-09-19T00:02:10;95805.06;;;17.36;100.00
10652;BME280;5374;42.742;23.266;2023-09-19T00:04:57;95809.09;;;17.33;100.00
10652;BME280;5374;42.742;23.266;2023-09-19T00:07:44;95791.44;;;17.27;100.00
10652;BME280;5374;42.742;23.266;2023-09-19T00:10:33;95800.25;;;17.33;100.00
10652;BME280;5374;42.742;23.266;2023-09-19T00:13:21;95801.94;;;17.24;100.00
10652;BME280;5374;42.742;23.266;2023-09-19T00:16:11;95797.59;;;17.28;100.00
10652;BME280;5374;42.742;23.266;2023-09-19T00:18:59;95800.84;;;17.25;100.00
10652;BME280;5374;42.742;23.266;2023-09-19T00:21:49;95791.22;;;17.19;100.00
10652;BME280;5374;42.742;23.266;2023-09-19T00:24:38;95792.66;;;17.11;100.00
10652;BME280;5374;42.742;23.266;2023-09-19T00:27:26;95765.94;;;16.96;100.00
10652;BME280;5374;42.742;23.266;2023-09-19T00:30:13;95763.03;;;16.92;100.00
10652;BME280;5374;42.742;23.266;2023-09-19T00:33:05;95772.63;;;16.98;100.00
10652;BME280;5374;42.742;23.266;2023-09-19T00:35:56;95771.66;;;16.89;100.00
10652;BME280;5374;42.742;23.266;2023-09-19T00:38:43;95776.25;;;16.84;100.00
10652;BME280;5374;42.742;23.266;2023-09-19T00:41:32;95779.00;;;16.73;100.00
10652;BME280;5374;42.742;23.266;2023-09-19T00:44:21;95780.06;;;16.72;100.00
10652;BME280;5374;42.742;23.266;2023-09-19T00:47:08;95788.88;;;16.78;100.00
10652;BME280;5374;42.742;23.266;2023-09-19T00:50:01;95788.88;;;16.78;100.00
10652;BME280;5374;42.742;23.266;2023-09-19T00:52:54;95786.44;;;16.82;100.00
10652;BME280;5374;42.742;23.266;2023-09-19T00:55:42;95789.41;;;16.80;100.00
10652;BME280;5374;42.742;23.266;2023-09-19T00:58:30;95774.41;;;16.79;100.00
10652;BME280;5374;42.742;23.266;2023-09-19T01:01:19;95778.13;;;16.83;100.00
10652;BME280;5374;42.742;23.266;2023-09-19T01:04:08;95745.03;;;16.64;100.00
10652;BME280;5374;42.742;23.266;2023-09-19T01:06:55;95773.59;;;16.79;100.00
10652;BME280;5374;42.742;23.266;2023-09-19T01:09:44;95784.31;;;16.79;100.00
10652;BME280;5374;42.742;23.266;2023-09-19T01:12:45;95784.09;;;16.75;100.00
10652;BME280;5374;42.742;23.266;2023-09-19T01:15:40;95780.88;;;16.73;100.00
10652;BME280;5374;42.742;23.266;2023-09-19T01:18:40;95783.06;;;16.71;100.00
10652;BME280;5374;42.742;23.266;2023-09-19T01:21:39;95786.81;;;16.70;100.00
10652;BME280;5374;42.742;23.266;2023-09-19T01:28:07;95784.69;;;16.62;100.00
10652;BME280;5374;42.742;23.266;2023-09-19T01:31:03;95785.25;;;16.64;100.00
10652;BME280;5374;42.742;23.266;2023-09-19T01:33:54;95777.19;;;16.59;100.00
10652;BME280;5374;42.742;23.266;2023-09-19T01:36:44;95787.72;;;16.50;100.00
10652;BME280;5374;42.742;23.266;2023-09-19T01:39:31;95784.22;;;16.50;100.00
10652;BME280;5374;42.742;23.266;2023-09-19T01:42:27;95787.41;;;16.57;100.00
10652;BME280;5374;42.742;23.266;2023-09-19T01:45:24;95783.38;;;16.59;100.00
10652;BME280;5374;42.742;23.266;2023-09-19T01:48:23;95794.91;;;16.60;100.00
10652;BME280;5374;42.742;23.266;2023-09-19T01:51:14;95797.84;;;16.63;100.00
10652;BME280;5374;42.742;23.266;2023-09-19T01:54:09;95797.84;;;16.63;100.00
10652;BME280;5374;42.742;23.266;2023-09-19T01:57:03;95784.16;;;16.65;100.00
10652;BME280;5374;42.742;23.266;2023-09-19T02:00:02;95792.22;;;16.60;100.00
10652;BME280;5374;42.742;23.266;2023-09-19T02:02:52;95792.84;;;16.47;100.00
10652;BME280;5374;42.742;23.266;2023-09-19T02:05:48;95787.53;;;16.36;100.00
10652;BME280;5374;42.742;23.266;2023-09-19T02:08:36;95787.28;;;16.33;100.00
10652;BME280;5374;42.742;23.266;2023-09-19T02:11:23;95789.25;;;16.22;100.00
10652;BME280;5374;42.742;23.266;2023-09-19T02:14:10;95787.31;;;16.28;100.00
10652;BME280;5374;42.742;23.266;2023-09-19T02:16:57;95791.06;;;16.27;100.00
10652;BME280;5374;42.742;23.266;2023-09-19T02:19:45;95784.41;;;16.24;100.00
10652;BME280;5374;42.742;23.266;2023-09-19T02:22:33;95784.41;;;16.19;100.00
10652;BME280;5374;42.742;23.266;2023-09-19T02:25:21;95783.91;;;16.17;100.00
10652;BME280;5374;42.742;23.266;2023-09-19T02:28:08;95783.72;;;15.98;100.00
10652;BME280;5374;42.742;23.266;2023-09-19T02:30:55;95780.78;;;15.95;100.00
10652;BME280;5374;42.742;23.266;2023-09-19T02:33:42;95774.09;;;15.92;100.00
10652;BME280;5374;42.742;23.266;2023-09-19T02:36:29;95776.50;;;15.94;100.00
10652;BME280;5374;42.742;23.266;2023-09-19T02:39:18;95773.56;;;15.90;100.00
10652;BME280;5374;42.742;23.266;2023-09-19T02:42:06;95776.00;;;15.87;100.00
10652;BME280;5374;42.742;23.266;2023-09-19T02:44:53;95769.56;;;15.88;100.00
10652;BME280;5374;42.742;23.266;2023-09-19T02:47:42;95762.13;;;15.80;100.00
10652;BME280;5374;42.742;23.266;2023-09-19T02:50:29;95757.31;;;15.77;100.00
10652;BME280;5374;42.742;23.266;2023-09-19T02:53:17;95766.44;;;15.70;100.00
10652;BME280;5374;42.742;23.266;2023-09-19T02:56:06;95757.88;;;15.63;100.00
10652;BME280;5374;42.742;23.266;2023-09-19T02:58:53;95736.75;;;15.47;100.00
10652;BME280;5374;42.742;23.266;2023-09-19T03:01:43;95752.25;;;15.60;100.00
10652;BME280;5374;42.742;23.266;2023-09-19T03:04:30;95742.38;;;15.45;100.00
10652;BME280;5374;42.742;23.266;2023-09-19T03:07:18;95751.47;;;15.49;100.00
10652;BME280;5374;42.742;23.266;2023-09-19T03:10:07;95744.00;;;15.46;100.00
10652;BME280;5374;42.742;23.266;2023-09-19T03:12:56;95737.84;;;15.40;100.00
10652;BME280;5374;42.742;23.266;2023-09-19T03:15:45;95741.06;;;15.43;100.00
10652;BME280;5374;42.742;23.266;2023-09-19T03:18:35;95737.03;;;15.40;100.00
10652;BME280;5374;42.742;23.266;2023-09-19T03:21:22;95748.28;;;15.42;100.00
10652;BME280;5374;42.742;23.266;2023-09-19T03:24:09;95743.19;;;15.40;100.00
10652;BME280;5374;42.742;23.266;2023-09-19T03:26:57;95742.69;;;15.33;100.00
10652;BME280;5374;42.742;23.266;2023-09-19T03:29:46;95737.63;;;15.27;100.00
10652;BME280;5374;42.742;23.266;2023-09-19T03:32:33;95742.19;;;15.21;100.00
10652;BME280;5374;42.742;23.266;2023-09-19T03:35:20;95752.06;;;15.26;100.00
10652;BME280;5374;42.742;23.266;2023-09-19T03:38:07;95759.03;;;15.22;100.00
10652;BME280;5374;42.742;23.266;2023-09-19T03:40:54;95771.88;;;15.20;100.00
10652;BME280;5374;42.742;23.266;2023-09-19T03:43:41;95747.28;;;15.13;100.00
10652;BME280;5374;42.742;23.266;2023-09-19T03:46:30;95764.91;;;15.14;100.00
10652;BME280;5374;42.742;23.266;2023-09-19T03:49:18;95776.19;;;15.11;100.00
10652;BME280;5374;42.742;23.266;2023-09-19T03:52:05;95760.66;;;15.02;100.00
10652;BME280;5374;42.742;23.266;2023-09-19T03:54:52;95763.34;;;15.02;100.00
10652;BME280;5374;42.742;23.266;2023-09-19T03:57:39;95764.94;;;14.98;100.00
10652;BME280;5374;42.742;23.266;2023-09-19T04:00:26;95770.31;;;14.98;100.00
10652;BME280;5374;42.742;23.266;2023-09-19T04:03:16;95784.75;;;14.97;100.00
10652;BME280;5374;42.742;23.266;2023-09-19T04:06:06;95789.56;;;14.95;100.00
10652;BME280;5374;42.742;23.266;2023-09-19T04:08:53;95785.81;;;14.96;100.00
10652;BME280;5374;42.742;23.266;2023-09-19T04:11:43;95785.28;;;14.99;100.00
10652;BME280;5374;42.742;23.266;2023-09-19T04:14:30;95785.53;;;15.03;100.00
10652;BME280;5374;42.742;23.266;2023-09-19T04:17:17;95774.03;;;15.08;100.00
10652;BME280;5374;42.742;23.266;2023-09-19T04:20:07;95766.56;;;15.10;100.00
10652;BME280;5374;42.742;23.266;2023-09-19T04:22:54;95771.34;;;15.18;100.00
10652;BME280;5374;42.742;23.266;2023-09-19T04:25:41;95771.34;;;15.18;100.00
10652;BME280;5374;42.742;23.266;2023-09-19T04:28:28;95771.34;;;15.28;100.00
10652;BME280;5374;42.742;23.266;2023-09-19T04:31:24;95761.44;;;15.33;100.00
10652;BME280;5374;42.742;23.266;2023-09-19T04:34:13;95762.72;;;15.46;100.00
10652;BME280;5374;42.742;23.266;2023-09-19T04:37:03;95771.81;;;15.60;100.00
10652;BME280;5374;42.742;23.266;2023-09-19T04:39:50;95765.91;;;15.68;100.00
10652;BME280;5374;42.742;23.266;2023-09-19T04:42:38;95762.34;;;15.83;100.00
10652;BME280;5374;42.742;23.266;2023-09-19T04:45:26;95766.88;;;15.93;100.00
10652;BME280;5374;42.742;23.266;2023-09-19T04:48:13;95753.94;;;16.05;100.00
10652;BME280;5374;42.742;23.266;2023-09-19T04:51:02;95763.50;;;16.26;100.00
10652;BME280;5374;42.742;23.266;2023-09-19T04:53:51;95762.22;;;16.53;100.00
10652;BME280;5374;42.742;23.266;2023-09-19T04:56:38;95764.47;;;16.80;100.00
10652;BME280;5374;42.742;23.266;2023-09-19T04:59:26;95765.59;;;17.07;100.00
10652;BME280;5374;42.742;23.266;2023-09-19T05:02:14;95753.59;;;17.24;100.00
10652;BME280;5374;42.742;23.266;2023-09-19T05:05:01;95745.28;;;17.49;100.00
10652;BME280;5374;42.742;23.266;2023-09-19T05:07:50;95744.97;;;17.80;100.00
10652;BME280;5374;42.742;23.266;2023-09-19T05:10:41;95754.28;;;18.30;100.00
10652;BME280;5374;42.742;23.266;2023-09-19T05:13:28;95752.38;;;20.29;100.00
10652;BME280;5374;42.742;23.266;2023-09-19T05:16:16;95750.59;;;22.80;65.32
10652;BME280;5374;42.742;23.266;2023-09-19T05:19:03;95753.41;;;25.04;54.84
10652;BME280;5374;42.742;23.266;2023-09-19T05:21:51;95790.16;;;26.89;47.81
10652;BME280;5374;42.742;23.266;2023-09-19T05:24:38;95779.41;;;28.78;42.81
10652;BME280;5374;42.742;23.266;2023-09-19T05:27:27;95786.00;;;30.65;38.51
10652;BME280;5374;42.742;23.266;2023-09-19T05:30:14;95783.44;;;31.72;36.20
10652;BME280;5374;42.742;23.266;2023-09-19T05:33:02;95780.38;;;32.80;34.12
10652;BME280;5374;42.742;23.266;2023-09-19T05:35:54;95775.34;;;31.90;35.10
10652;BME280;5374;42.742;23.266;2023-09-19T05:38:48;95761.75;;;31.26;35.60
10652;BME280;5374;42.742;23.266;2023-09-19T05:41:36;95767.09;;;30.86;36.63
10652;BME280;5374;42.742;23.266;2023-09-19T05:44:27;95762.06;;;29.89;37.81
10652;BME280;5374;42.742;23.266;2023-09-19T05:47:14;95763.00;;;29.74;38.46
10652;BME280;5374;42.742;23.266;2023-09-19T05:50:01;95764.59;;;30.47;37.66
10652;BME280;5374;42.742;23.266;2023-09-19T05:52:51;95771.78;;;30.85;36.22
10652;BME280;5374;42.742;23.266;2023-09-19T05:55:39;95775.34;;;31.16;35.97
10652;BME280;5374;42.742;23.266;2023-09-19T05:58:26;95757.81;;;32.02;34.99
10652;BME280;5374;42.742;23.266;2023-09-19T06:01:15;95754.09;;;32.86;33.98
10652;BME280;5374;42.742;23.266;2023-09-19T06:04:02;95758.72;;;33.76;32.75
10652;BME280;5374;42.742;23.266;2023-09-19T06:06:50;95755.25;;;34.39;31.30
10652;BME280;5374;42.742;23.266;2023-09-19T06:09:37;95750.69;;;35.30;30.73
10652;BME280;5374;42.742;23.266;2023-09-19T06:12:24;95763.38;;;35.14;29.67
10652;BME280;5374;42.742;23.266;2023-09-19T06:15:12;95752.84;;;34.70;31.01
10652;BME280;5374;42.742;23.266;2023-09-19T06:18:02;95755.88;;;35.11;29.81
10652;BME280;5374;42.742;23.266;2023-09-19T06:20:51;95745.69;;;35.77;29.10
10652;BME280;5374;42.742;23.266;2023-09-19T06:23:38;95738.44;;;35.97;28.38
10652;BME280;5374;42.742;23.266;2023-09-19T06:26:25;95747.59;;;36.39;27.97
10652;BME280;5374;42.742;23.266;2023-09-19T06:29:13;95743.91;;;37.28;27.44
10652;BME280;5374;42.742;23.266;2023-09-19T06:32:01;95744.91;;;37.07;27.15
10652;BME280;5374;42.742;23.266;2023-09-19T06:34:53;95748.22;;;37.29;26.53
10652;BME280;5374;42.742;23.266;2023-09-19T06:37:42;95742.66;;;34.31;29.30
10652;BME280;5374;42.742;23.266;2023-09-19T06:40:29;95737.78;;;32.01;32.13
10652;BME280;5374;42.742;23.266;2023-09-19T06:43:18;95742.00;;;30.31;34.61
10652;BME280;5374;42.742;23.266;2023-09-19T06:46:05;95732.84;;;29.09;37.39
10652;BME280;5374;42.742;23.266;2023-09-19T06:48:53;95713.22;;;27.99;39.58
10652;BME280;5374;42.742;23.266;2023-09-19T06:51:41;95734.94;;;27.04;42.17
10652;BME280;5374;42.742;23.266;2023-09-19T06:54:29;95745.47;;;26.78;42.59
10652;BME280;5374;42.742;23.266;2023-09-19T06:57:16;95733.75;;;26.37;43.39
10652;BME280;5374;42.742;23.266;2023-09-19T07:00:05;95744.41;;;26.06;44.18
10652;BME280;5374;42.742;23.266;2023-09-19T07:02:56;95739.09;;;24.95;47.65
10652;BME280;5374;42.742;23.266;2023-09-19T07:05:47;95748.75;;;24.83;47.92
10652;BME280;5374;42.742;23.266;2023-09-19T07:08:37;95737.81;;;24.50;49.08
10652;BME280;5374;42.742;23.266;2023-09-19T07:11:25;95726.28;;;24.03;50.54
10652;BME280;5374;42.742;23.266;2023-09-19T07:14:12;95740.31;;;23.76;51.69
10652;BME280;5374;42.742;23.266;2023-09-19T07:16:59;95739.44;;;23.93;52.15
10652;BME280;5374;42.742;23.266;2023-09-19T07:19:47;95747.59;;;23.37;53.36
10652;BME280;5374;42.742;23.266;2023-09-19T07:22:35;95669.41;;;23.18;53.34
10652;BME280;5374;42.742;23.266;2023-09-19T07:25:26;95700.38;;;23.47;53.71
10652;BME280;5374;42.742;23.266;2023-09-19T07:28:14;95734.16;;;23.67;53.61
10652;BME280;5374;42.742;23.266;2023-09-19T07:31:02;95735.59;;;23.64;53.33
10652;BME280;5374;42.742;23.266;2023-09-19T07:33:50;95695.63;;;23.35;52.68
10652;BME280;5374;42.742;23.266;2023-09-19T07:36:37;95749.53;;;23.83;53.00
10652;BME280;5374;42.742;23.266;2023-09-19T07:39:26;95741.63;;;23.99;52.45
10652;BME280;5374;42.742;23.266;2023-09-19T07:42:15;95693.34;;;23.93;52.33
10652;BME280;5374;42.742;23.266;2023-09-19T07:45:04;95736.09;;;24.25;52.38
10652;BME280;5374;42.742;23.266;2023-09-19T07:47:52;95743.84;;;24.35;51.73
10652;BME280;5374;42.742;23.266;2023-09-19T07:50:39;95716.56;;;24.32;51.56
10652;BME280;5374;42.742;23.266;2023-09-19T07:53:29;95738.03;;;24.45;51.38
10652;BME280;5374;42.742;23.266;2023-09-19T07:56:21;95738.47;;;24.47;50.66
10652;BME280;5374;42.742;23.266;2023-09-19T07:59:11;95728.75;;;24.46;49.51
10652;BME280;5374;42.742;23.266;2023-09-19T08:01:59;95675.84;;;23.81;51.63
10652;BME280;5374;42.742;23.266;2023-09-19T08:04:46;95714.19;;;24.30;50.71
10652;BME280;5374;42.742;23.266;2023-09-19T08:07:34;95703.59;;;24.37;51.10
10652;BME280;5374;42.742;23.266;2023-09-19T08:10:22;95705.06;;;24.56;52.02
10652;BME280;5374;42.742;23.266;2023-09-19T08:13:11;95717.28;;;24.82;50.62
10652;BME280;5374;42.742;23.266;2023-09-19T08:16:03;95691.38;;;24.85;50.35
10652;BME280;5374;42.742;23.266;2023-09-19T08:18:51;95678.91;;;25.05;50.44
10652;BME280;5374;42.742;23.266;2023-09-19T08:21:38;95647.75;;;25.02;48.23
10652;BME280;5374;42.742;23.266;2023-09-19T08:24:26;95710.34;;;25.39;46.52
10652;BME280;5374;42.742;23.266;2023-09-19T08:27:14;95712.59;;;25.37;47.58
10652;BME280;5374;42.742;23.266;2023-09-19T08:30:06;95707.03;;;25.33;48.29
10652;BME280;5374;42.742;23.266;2023-09-19T08:32:58;95674.84;;;25.23;48.04
10652;BME280;5374;42.742;23.266;2023-09-19T08:35:45;95709.22;;;25.52;47.54
10652;BME280;5374;42.742;23.266;2023-09-19T08:38:35;95681.44;;;25.34;47.10
10652;BME280;5374;42.742;23.266;2023-09-19T08:41:22;95698.06;;;25.33;47.90
10652;BME280;5374;42.742;23.266;2023-09-19T08:44:09;95681.31;;;25.31;47.01
10652;BME280;5374;42.742;23.266;2023-09-19T08:47:09;95652.97;;;25.19;47.25
10652;BME280;5374;42.742;23.266;2023-09-19T08:50:04;95707.28;;;25.40;47.52
10652;BME280;5374;42.742;23.266;2023-09-19T08:52:56;95683.69;;;25.32;47.24
10652;BME280;5374;42.742;23.266;2023-09-19T08:55:51;95694.94;;;25.43;47.86
10652;BME280;5374;42.742;23.266;2023-09-19T08:58:45;95659.78;;;24.93;48.26
10652;BME280;5374;42.742;23.266;2023-09-19T09:01:33;95708.59;;;25.22;48.01
10652;BME280;5374;42.742;23.266;2023-09-19T09:04:22;95698.19;;;25.36;49.01
10652;BME280;5374;42.742;23.266;2023-09-19T09:07:12;95651.41;;;25.31;48.56
10652;BME280;5374;42.742;23.266;2023-09-19T09:10:00;95699.03;;;25.49;48.00
10652;BME280;5374;42.742;23.266;2023-09-19T09:12:51;95678.25;;;25.20;47.97
10652;BME280;5374;42.742;23.266;2023-09-19T09:15:41;95692.38;;;25.13;47.57
10652;BME280;5374;42.742;23.266;2023-09-19T09:18:30;95657.94;;;25.05;47.65
10652;BME280;5374;42.742;23.266;2023-09-19T09:21:18;95661.34;;;25.14;47.89
10652;BME280;5374;42.742;23.266;2023-09-19T09:24:37;95682.59;;;25.45;48.48
10652;BME280;5374;42.742;23.266;2023-09-19T09:27:25;95655.94;;;25.39;46.64
10652;BME280;5374;42.742;23.266;2023-09-19T09:30:32;95664.69;;;25.44;47.43
10652;BME280;5374;42.742;23.266;2023-09-19T09:33:24;95633.94;;;25.32;48.13
10652;BME280;5374;42.742;23.266;2023-09-19T09:36:13;95656.41;;;25.53;46.97
10652;BME280;5374;42.742;23.266;2023-09-19T09:39:01;95635.47;;;25.66;46.57
10652;BME280;5374;42.742;23.266;2023-09-19T09:42:04;95647.47;;;25.89;46.02
10652;BME280;5374;42.742;23.266;2023-09-19T09:45:14;95577.78;;;25.24;46.10
10652;BME280;5374;42.742;23.266;2023-09-19T09:48:06;95636.50;;;25.73;45.45
10652;BME280;5374;42.742;23.266;2023-09-19T09:51:00;95649.19;;;25.94;45.08
10652;BME280;5374;42.742;23.266;2023-09-19T09:53:49;95660.97;;;25.98;44.67
10652;BME280;5374;42.742;23.266;2023-09-19T09:56:52;95612.00;;;25.49;45.78
10652;BME280;5374;42.742;23.266;2023-09-19T09:59:51;95641.25;;;25.52;45.91
10652;BME280;5374;42.742;23.266;2023-09-19T10:02:41;95636.47;;;25.61;45.19
10652;BME280;5374;42.742;23.266;2023-09-19T10:05:32;95641.16;;;25.73;45.64
10652;BME280;5374;42.742;23.266;2023-09-19T10:08:26;95634.47;;;25.70;45.87
10652;BME280;5374;42.742;23.266;2023-09-19T10:11:17;95639.09;;;25.70;45.66
10652;BME280;5374;42.742;23.266;2023-09-19T10:14:06;95626.06;;;25.75;45.81
10652;BME280;5374;42.742;23.266;2023-09-19T10:16:58;95624.56;;;25.90;45.18
10652;BME280;5374;42.742;23.266;2023-09-19T10:19:55;95620.03;;;25.94;45.06
10652;BME280;5374;42.742;23.266;2023-09-19T10:22:45;95652.66;;;26.06;44.60
10652;BME280;5374;42.742;23.266;2023-09-19T10:25:43;95633.03;;;26.01;44.86
10652;BME280;5374;42.742;23.266;2023-09-19T10:28:33;95628.25;;;26.10;44.60
10652;BME280;5374;42.742;23.266;2023-09-19T10:31:22;95622.59;;;26.03;44.91
10652;BME280;5374;42.742;23.266;2023-09-19T10:34:14;95599.41;;;25.81;44.66
10652;BME280;5374;42.742;23.266;2023-09-19T10:37:02;95634.63;;;26.02;44.64
10652;BME280;5374;42.742;23.266;2023-09-19T10:39:51;95622.88;;;25.98;45.75
10652;BME280;5374;42.742;23.266;2023-09-19T10:42:40;95593.63;;;25.95;44.62
10652;BME280;5374;42.742;23.266;2023-09-19T10:45:30;95579.22;;;25.94;44.44
10652;BME280;5374;42.742;23.266;2023-09-19T10:48:19;95605.06;;;26.28;46.04
10652;BME280;5374;42.742;23.266;2023-09-19T10:51:14;95602.25;;;26.37;45.12
10652;BME280;5374;42.742;23.266;2023-09-19T10:54:07;95596.28;;;26.47;43.99
10652;BME280;5374;42.742;23.266;2023-09-19T10:57:01;95601.03;;;26.50;43.78
10652;BME280;5374;42.742;23.266;2023-09-19T11:00:04;95584.41;;;26.39;44.84
10652;BME280;5374;42.742;23.266;2023-09-19T11:03:18;95594.00;;;26.49;43.86
10652;BME280;5374;42.742;23.266;2023-09-19T11:06:09;95591.81;;;26.54;44.60
10652;BME280;5374;42.742;23.266;2023-09-19T11:09:01;95597.75;;;26.72;45.77
10652;BME280;5374;42.742;23.266;2023-09-19T11:12:08;95590.81;;;26.75;44.87
10652;BME280;5374;42.742;23.266;2023-09-19T11:14:55;95571.03;;;26.78;44.32
10652;BME280;5374;42.742;23.266;2023-09-19T11:17:43;95588.19;;;26.94;44.23
10652;BME280;5374;42.742;23.266;2023-09-19T11:20:34;95585.34;;;27.03;44.07
10652;BME280;5374;42.742;23.266;2023-09-19T11:23:37;95585.16;;;27.11;43.26
10652;BME280;5374;42.742;23.266;2023-09-19T11:26:40;95574.00;;;27.16;43.27
10652;BME280;5374;42.742;23.266;2023-09-19T11:29:30;95572.06;;;27.33;42.92
10652;BME280;5374;42.742;23.266;2023-09-19T11:36:00;95557.19;;;27.30;42.38
10652;BME280;5374;42.742;23.266;2023-09-19T11:38:58;95552.19;;;27.16;43.88
10652;BME280;5374;42.742;23.266;2023-09-19T11:41:48;95549.44;;;27.16;44.19
10652;BME280;5374;42.742;23.266;2023-09-19T11:44:45;95537.66;;;27.28;43.05
10652;BME280;5374;42.742;23.266;2023-09-19T11:47:41;95539.91;;;27.42;42.81
10652;BME280;5374;42.742;23.266;2023-09-19T11:50:31;95541.25;;;27.48;42.93
10652;BME280;5374;42.742;23.266;2023-09-19T11:53:18;95544.41;;;27.50;42.22
10652;BME280;5374;42.742;23.266;2023-09-19T11:56:06;95538.94;;;27.50;42.62
10652;BME280;5374;42.742;23.266;2023-09-19T11:58:57;95518.44;;;27.40;42.63
10652;BME280;5374;42.742;23.266;2023-09-19T12:01:51;95524.88;;;27.48;42.77
10652;BME280;5374;42.742;23.266;2023-09-19T12:04:44;95517.00;;;27.27;42.99
10652;BME280;5374;42.742;23.266;2023-09-19T12:07:42;95508.53;;;27.16;43.67
10652;BME280;5374;42.742;23.266;2023-09-19T12:10:30;95498.69;;;27.28;43.89
10652;BME280;5374;42.742;23.266;2023-09-19T12:13:17;95505.81;;;27.32;43.46
10652;BME280;5374;42.742;23.266;2023-09-19T12:16:13;95490.53;;;27.47;43.22
10652;BME280;5374;42.742;23.266;2023-09-19T12:19:18;95495.28;;;27.50;42.93
10652;BME280;5374;42.742;23.266;2023-09-19T12:22:06;95488.53;;;27.44;43.42
10652;BME280;5374;42.742;23.266;2023-09-19T12:25:05;95488.19;;;27.45;42.74
10652;BME280;5374;42.742;23.266;2023-09-19T12:27:53;95477.75;;;27.32;43.27
10652;BME280;5374;42.742;23.266;2023-09-19T12:30:41;95479.56;;;27.08;43.89
10652;BME280;5374;42.742;23.266;2023-09-19T12:33:29;95483.56;;;27.14;43.96
10652;BME280;5374;42.742;23.266;2023-09-19T12:36:21;95478.28;;;27.21;43.42
10652;BME280;5374;42.742;23.266;2023-09-19T12:39:23;95477.75;;;27.16;44.04
10652;BME280;5374;42.742;23.266;2023-09-19T12:42:12;95472.31;;;27.16;43.72
10652;BME280;5374;42.742;23.266;2023-09-19T12:45:01;95474.34;;;27.19;43.94
10652;BME280;5374;42.742;23.266;2023-09-19T12:48:20;95476.44;;;27.26;44.64
10652;BME280;5374;42.742;23.266;2023-09-19T12:51:10;95465.31;;;27.34;43.67
10652;BME280;5374;42.742;23.266;2023-09-19T12:53:58;95449.53;;;27.24;42.83
10652;BME280;5374;42.742;23.266;2023-09-19T12:56:45;95375.63;;;26.78;42.99
10652;BME280;5374;42.742;23.266;2023-09-19T12:59:33;95454.84;;;27.36;43.54
10652;BME280;5374;42.742;23.266;2023-09-19T13:02:21;95453.63;;;27.34;43.25
10652;BME280;5374;42.742;23.266;2023-09-19T13:05:11;95451.53;;;27.27;44.20
10652;BME280;5374;42.742;23.266;2023-09-19T13:08:17;95455.06;;;27.28;43.99
10652;BME280;5374;42.742;23.266;2023-09-19T13:11:10;95447.06;;;27.19;44.02
10652;BME280;5374;42.742;23.266;2023-09-19T13:14:15;95430.06;;;27.26;43.33
10652;BME280;5374;42.742;23.266;2023-09-19T13:17:05;95435.91;;;27.43;43.68
10652;BME280;5374;42.742;23.266;2023-09-19T13:20:01;95432.13;;;27.48;43.63
10652;BME280;5374;42.742;23.266;2023-09-19T13:22:53;95423.63;;;27.34;43.25
10652;BME280;5374;42.742;23.266;2023-09-19T13:25:46;95426.72;;;27.32;43.76
10652;BME280;5374;42.742;23.266;2023-09-19T13:28:34;95433.59;;;27.26;43.87
10652;BME280;5374;42.742;23.266;2023-09-19T13:31:22;95421.28;;;27.16;44.00
10652;BME280;5374;42.742;23.266;2023-09-19T13:34:09;95410.25;;;27.09;44.34
10652;BME280;5374;42.742;23.266;2023-09-19T13:36:56;95432.72;;;27.22;43.61
10652;BME280;5374;42.742;23.266;2023-09-19T13:39:46;95431.06;;;27.17;43.31
10652;BME280;5374;42.742;23.266;2023-09-19T13:42:36;95416.19;;;27.15;44.09
10652;BME280;5374;42.742;23.266;2023-09-19T13:45:23;95414.56;;;26.95;45.28
10652;BME280;5374;42.742;23.266;2023-09-19T13:48:16;95412.69;;;27.14;44.37
10652;BME280;5374;42.742;23.266;2023-09-19T13:51:07;95412.91;;;27.25;44.03
10652;BME280;5374;42.742;23.266;2023-09-19T13:53:55;95413.44;;;27.31;43.82
10652;BME280;5374;42.742;23.266;2023-09-19T13:56:42;95414.22;;;27.31;43.86
10652;BME280;5374;42.742;23.266;2023-09-19T13:59:31;95382.03;;;27.02;44.00
10652;BME280;5374;42.742;23.266;2023-09-19T14:02:18;95410.00;;;26.99;44.86
10652;BME280;5374;42.742;23.266;2023-09-19T14:05:05;95404.72;;;27.06;44.60
10652;BME280;5374;42.742;23.266;2023-09-19T14:07:52;95410.66;;;27.11;44.42
10652;BME280;5374;42.742;23.266;2023-09-19T14:10:41;95408.44;;;27.17;44.11
10652;BME280;5374;42.742;23.266;2023-09-19T14:13:28;95398.91;;;27.07;44.30
10652;BME280;5374;42.742;23.266;2023-09-19T14:16:17;95413.56;;;27.18;44.25
10652;BME280;5374;42.742;23.266;2023-09-19T14:19:05;95398.69;;;27.16;44.70
10652;BME280;5374;42.742;23.266;2023-09-19T14:21:55;95409.31;;;27.21;44.29
10652;BME280;5374;42.742;23.266;2023-09-19T14:24:43;95382.81;;;27.02;43.80
10652;BME280;5374;42.742;23.266;2023-09-19T14:27:31;95400.63;;;27.15;44.14
10652;BME280;5374;42.742;23.266;2023-09-19T14:30:18;95391.31;;;27.16;44.29
10652;BME280;5374;42.742;23.266;2023-09-19T14:33:08;95381.84;;;27.10;43.75
10652;BME280;5374;42.742;23.266;2023-09-19T14:35:55;95384.69;;;27.17;43.82
10652;BME280;5374;42.742;23.266;2023-09-19T14:38:42;95375.94;;;27.08;44.15
10652;BME280;5374;42.742;23.266;2023-09-19T14:41:30;95394.59;;;27.06;44.51
10652;BME280;5374;42.742;23.266;2023-09-19T14:44:17;95391.97;;;27.10;44.16
10652;BME280;5374;42.742;23.266;2023-09-19T14:47:05;95389.78;;;27.00;45.32
10652;BME280;5374;42.742;23.266;2023-09-19T14:49:54;95390.03;;;26.95;45.24
10652;BME280;5374;42.742;23.266;2023-09-19T14:52:41;95385.63;;;26.90;45.23
10652;BME280;5374;42.742;23.266;2023-09-19T14:55:29;95382.69;;;26.64;45.69
10652;BME280;5374;42.742;23.266;2023-09-19T14:58:20;95376.38;;;26.60;46.26
10652;BME280;5374;42.742;23.266;2023-09-19T15:01:08;95381.38;;;26.58;46.18
10652;BME280;5374;42.742;23.266;2023-09-19T15:03:56;95377.88;;;26.57;46.03
10652;BME280;5374;42.742;23.266;2023-09-19T15:06:44;95370.03;;;26.55;46.07